Time;durP1;ratioP1;P1;durP2;ratioP2;P2;SDS_P1;SDS_P2;PMS_P1;PMS_P2;Temp;Humidity;BMP_temperature;BMP_pressure;BME280_temperature;BME280_humidity;BME280_pressure;Samples;Min_cycle;Max_cycle;Signal;HPM_P1;HPM_P2
2024/02/15 00:02:16;;;;;;;4.20;3.05;;;14.10;92.10;;;;;;5034942;28;20026;-65
2024/02/15 00:04:42;;;;;;;4.00;2.92;;;14.20;92.10;;;;;;5044756;28;20157;-65
2024/02/15 00:07:08;;;;;;;5.35;3.50;;;14.20;92.10;;;;;;5032638;28;20037;-65
2024/02/15 00:09:34;;;;;;;6.20;3.40;;;14.20;92.10;;;;;;5033570;28;20037;-65
2024/02/15 00:12:00;;;;;;;4.78;2.83;;;14.10;92.10;;;;;;5030457;28;20030;-66
2024/02/15 00:14:28;;;;;;;5.13;3.00;;;14.10;92.10;;;;;;5039222;28;20038;-66
2024/02/15 00:16:54;;;;;;;3.35;2.03;;;14.10;92.10;;;;;;5040903;28;20049;-66
2024/02/15 00:19:21;;;;;;;5.20;3.80;;;14.20;92.10;;;;;;5025034;28;20551;-66
2024/02/15 00:21:47;;;;;;;4.35;2.65;;;14.20;92.00;;;;;;5029617;28;20025;-65
2024/02/15 00:24:14;;;;;;;5.28;3.95;;;14.20;92.10;;;;;;5024124;28;20026;-66
2024/02/15 00:26:42;;;;;;;4.65;3.25;;;14.20;92.00;;;;;;5032754;28;20152;-68
2024/02/15 00:29:09;;;;;;;5.63;3.55;;;14.20;92.00;;;;;;5034528;28;20036;-65
2024/02/15 00:31:38;;;;;;;4.03;2.47;;;14.30;92.00;;;;;;5036246;28;20393;-65
2024/02/15 00:34:04;;;;;;;5.63;3.42;;;14.30;92.00;;;;;;5034170;28;20045;-66
2024/02/15 00:36:30;;;;;;;6.05;3.10;;;14.30;91.90;;;;;;5032807;28;20034;-65
2024/02/15 00:38:56;;;;;;;4.45;2.85;;;14.40;91.90;;;;;;5036512;28;20622;-65
2024/02/15 00:41:22;;;;;;;5.57;3.20;;;14.30;91.80;;;;;;5031174;28;20017;-65
2024/02/15 00:43:49;;;;;;;4.25;2.50;;;14.40;91.80;;;;;;5063368;28;20025;-65
2024/02/15 00:46:18;;;;;;;7.70;3.38;;;14.40;91.80;;;;;;5028621;28;20055;-65
2024/02/15 00:48:44;;;;;;;5.35;3.50;;;14.40;91.70;;;;;;5029770;28;20413;-66
2024/02/15 00:51:10;;;;;;;4.35;2.75;;;14.40;91.80;;;;;;5029751;28;20338;-65
2024/02/15 00:53:36;;;;;;;6.75;3.38;;;14.40;91.70;;;;;;5023895;28;20029;-66
2024/02/15 00:56:03;;;;;;;5.50;3.70;;;14.40;91.70;;;;;;5033955;28;20049;-65
2024/02/15 00:58:30;;;;;;;6.10;3.33;;;14.40;91.70;;;;;;5036310;28;20021;-65
2024/02/15 01:00:55;;;;;;;4.97;2.88;;;14.40;91.70;;;;;;5029752;28;20037;-65
2024/02/15 01:03:22;;;;;;;4.50;2.83;;;14.40;91.70;;;;;;5030492;28;20033;-66
2024/02/15 01:05:48;;;;;;;4.88;3.08;;;14.40;91.70;;;;;;5030537;28;20033;-66
2024/02/15 01:08:14;;;;;;;6.07;4.35;;;14.40;91.70;;;;;;5027926;28;20029;-65
2024/02/15 01:10:40;;;;;;;8.35;4.00;;;14.40;91.70;;;;;;5030062;28;20069;-66
2024/02/15 01:13:06;;;;;;;7.97;4.32;;;14.40;91.60;;;;;;5031695;28;20083;-65
2024/02/15 01:15:32;;;;;;;9.88;5.57;;;14.40;91.60;;;;;;5028746;28;20022;-65
2024/02/15 01:17:58;;;;;;;9.52;4.03;;;14.40;91.60;;;;;;5031110;28;20095;-66
2024/02/15 01:20:24;;;;;;;8.07;4.60;;;14.30;91.70;;;;;;5034625;28;20032;-66
2024/02/15 01:22:51;;;;;;;5.22;3.15;;;14.40;91.70;;;;;;5051767;28;20034;-65
2024/02/15 01:25:18;;;;;;;6.03;3.40;;;14.40;91.70;;;;;;5043623;28;20045;-65
2024/02/15 01:27:45;;;;;;;7.57;3.78;;;14.40;91.70;;;;;;5026462;28;20476;-66
2024/02/15 01:30:11;;;;;;;5.60;3.38;;;14.40;91.70;;;;;;5028762;28;20401;-67
2024/02/15 01:32:39;;;;;;;5.85;3.88;;;14.40;91.60;;;;;;5028668;28;20057;-66
2024/02/15 01:35:05;;;;;;;5.82;3.67;;;14.40;91.70;;;;;;5032513;28;20030;-66
2024/02/15 01:37:31;;;;;;;7.25;3.20;;;14.40;91.70;;;;;;5028672;28;20073;-66
2024/02/15 01:39:57;;;;;;;6.10;3.75;;;14.40;91.70;;;;;;5030539;28;20064;-65
2024/02/15 01:42:24;;;;;;;6.72;3.88;;;14.40;91.60;;;;;;5029776;28;20147;-66
2024/02/15 01:44:51;;;;;;;5.80;3.50;;;14.40;91.70;;;;;;5028628;28;20036;-65
2024/02/15 01:47:19;;;;;;;5.15;3.05;;;14.30;91.60;;;;;;5032406;28;20465;-65
2024/02/15 01:49:45;;;;;;;6.82;3.72;;;14.30;91.70;;;;;;5029187;28;20547;-65
2024/02/15 01:52:13;;;;;;;4.95;3.35;;;14.40;91.70;;;;;;5031093;28;20034;-65
2024/02/15 01:54:39;;;;;;;6.70;3.05;;;14.40;91.60;;;;;;5031342;28;20025;-65
2024/02/15 01:57:06;;;;;;;5.93;3.30;;;14.40;91.60;;;;;;5029314;28;20060;-66
2024/02/15 01:59:32;;;;;;;5.43;3.28;;;14.40;91.50;;;;;;5037931;28;20519;-65
2024/02/15 02:01:58;;;;;;;6.30;3.17;;;14.40;91.60;;;;;;5029404;28;20033;-65
2024/02/15 02:04:24;;;;;;;4.63;2.72;;;14.40;91.60;;;;;;5027570;28;20027;-65
2024/02/15 02:06:50;;;;;;;3.47;2.30;;;14.40;91.60;;;;;;5029822;28;20030;-65
2024/02/15 02:09:16;;;;;;;5.18;2.63;;;14.40;91.60;;;;;;5030495;28;20064;-65
2024/02/15 02:11:48;;;;;;;5.80;3.33;;;14.40;91.50;;;;;;5029410;28;20048;-65
2024/02/15 02:14:14;;;;;;;7.90;3.25;;;14.40;91.50;;;;;;5031820;28;20109;-66
2024/02/15 02:16:41;;;;;;;3.47;2.35;;;14.40;91.50;;;;;;5028177;28;20103;-65
2024/02/15 02:19:08;;;;;;;4.55;3.08;;;14.50;91.50;;;;;;5027331;28;20164;-66
2024/02/15 02:21:36;;;;;;;5.00;3.15;;;14.40;91.40;;;;;;5031087;28;20091;-65
2024/02/15 02:24:13;;;;;;;5.97;3.55;;;14.40;91.40;;;;;;5030095;28;20431;-66
2024/02/15 02:26:39;;;;;;;4.80;2.45;;;14.40;91.50;;;;;;5023739;28;20104;-66
2024/02/15 02:29:05;;;;;;;4.05;2.80;;;14.40;91.40;;;;;;5027853;28;20033;-65
2024/02/15 02:31:34;;;;;;;4.43;2.70;;;14.50;91.40;;;;;;5031418;28;20029;-66
2024/02/15 02:34:01;;;;;;;3.05;1.95;;;14.40;91.40;;;;;;5026549;28;20057;-66
2024/02/15 02:36:29;;;;;;;3.90;2.58;;;14.50;91.40;;;;;;5029673;28;20094;-65
2024/02/15 02:39:00;;;;;;;5.28;2.80;;;14.40;91.30;;;;;;5034658;28;20129;-66
2024/02/15 02:41:28;;;;;;;4.47;2.13;;;14.50;91.30;;;;;;5028852;28;20048;-65
2024/02/15 02:43:57;;;;;;;3.13;1.95;;;14.40;91.30;;;;;;5028432;28;20539;-66
2024/02/15 02:46:23;;;;;;;5.20;2.95;;;14.40;91.30;;;;;;5029514;28;20113;-66
2024/02/15 02:48:49;;;;;;;4.53;2.75;;;14.40;91.30;;;;;;5028862;28;20532;-66
2024/02/15 02:51:15;;;;;;;7.05;2.65;;;14.40;91.30;;;;;;5027208;28;20072;-66
2024/02/15 02:53:41;;;;;;;8.15;3.28;;;14.40;91.30;;;;;;5029124;28;20052;-65
2024/02/15 02:56:09;;;;;;;4.43;2.25;;;14.40;91.30;;;;;;5028149;28;20038;-66
2024/02/15 02:58:35;;;;;;;4.28;2.72;;;14.40;91.30;;;;;;5028192;28;20366;-66
2024/02/15 03:01:01;;;;;;;5.10;2.63;;;14.40;91.30;;;;;;5024290;28;20528;-66
2024/02/15 03:03:28;;;;;;;7.97;3.60;;;14.40;91.40;;;;;;5028507;28;20478;-66
2024/02/15 03:05:54;;;;;;;4.80;2.63;;;14.40;91.30;;;;;;5033700;28;20021;-66
2024/02/15 03:08:20;;;;;;;3.90;2.30;;;14.40;91.30;;;;;;5009361;28;20100;-65
2024/02/15 03:10:46;;;;;;;4.07;2.65;;;14.40;91.30;;;;;;5030872;28;20042;-66
2024/02/15 03:13:12;;;;;;;4.10;2.80;;;14.30;91.30;;;;;;5028393;28;20064;-66
2024/02/15 03:15:38;;;;;;;5.22;2.30;;;14.30;91.30;;;;;;5027784;28;20227;-66
2024/02/15 03:18:06;;;;;;;7.10;3.03;;;14.30;91.30;;;;;;5032664;28;20124;-66
2024/02/15 03:20:33;;;;;;;4.30;1.95;;;14.30;91.30;;;;;;5032788;28;20063;-66
2024/02/15 03:23:00;;;;;;;4.22;2.42;;;14.30;91.30;;;;;;5037404;28;20605;-66
2024/02/15 03:25:28;;;;;;;4.15;2.13;;;14.30;91.30;;;;;;5017702;28;20131;-65
2024/02/15 03:27:56;;;;;;;3.13;2.25;;;14.30;91.30;;;;;;5035098;28;20028;-66
2024/02/15 03:30:29;;;;;;;4.68;2.28;;;14.30;91.30;;;;;;5037889;28;20029;-66
2024/02/15 03:32:55;;;;;;;4.35;2.08;;;14.30;91.30;;;;;;5034436;28;20045;-66
2024/02/15 03:35:22;;;;;;;2.33;1.60;;;14.30;91.30;;;;;;5028274;28;20040;-66
2024/02/15 03:37:52;;;;;;;3.88;2.33;;;14.30;91.30;;;;;;5036892;28;20037;-66
2024/02/15 03:40:22;;;;;;;3.22;2.38;;;14.30;91.30;;;;;;5036070;28;21245;-66
2024/02/15 03:42:50;;;;;;;2.72;1.67;;;14.30;91.30;;;;;;5033323;28;20692;-66
2024/02/15 03:45:16;;;;;;;2.28;1.75;;;14.30;91.30;;;;;;5034629;28;20042;-66
2024/02/15 03:47:42;;;;;;;1.75;1.20;;;14.30;91.30;;;;;;5034734;28;20126;-66
2024/02/15 03:50:14;;;;;;;1.65;1.55;;;14.30;91.20;;;;;;5032429;28;20408;-66
2024/02/15 03:52:41;;;;;;;4.47;2.03;;;14.30;91.20;;;;;;5037318;28;20505;-66
2024/02/15 03:55:07;;;;;;;2.70;1.95;;;14.30;91.10;;;;;;5026076;28;20082;-66
2024/02/15 03:57:34;;;;;;;3.00;1.80;;;14.30;91.10;;;;;;5034374;28;20042;-66
2024/02/15 04:00:00;;;;;;;2.70;1.95;;;14.30;91.10;;;;;;5039048;28;20025;-67
2024/02/15 04:02:27;;;;;;;2.05;1.40;;;14.20;91.10;;;;;;5037350;28;20076;-66
2024/02/15 04:04:55;;;;;;;3.67;2.67;;;14.20;91.10;;;;;;5035480;28;20017;-66
2024/02/15 04:07:26;;;;;;;3.97;1.67;;;14.30;91.10;;;;;;5024843;28;20033;-66
2024/02/15 04:09:55;;;;;;;1.88;1.30;;;14.20;91.10;;;;;;5036515;28;20118;-66
2024/02/15 04:12:21;;;;;;;2.35;1.70;;;14.20;91.10;;;;;;5033465;28;20052;-66
2024/02/15 04:14:48;;;;;;;4.95;1.52;;;14.20;91.00;;;;;;5047808;28;20044;-66
2024/02/15 04:17:21;;;;;;;2.33;1.73;;;14.20;91.10;;;;;;5034237;28;20029;-66
2024/02/15 04:19:49;;;;;;;1.63;1.42;;;14.20;91.10;;;;;;5035226;28;20115;-66
2024/02/15 04:22:16;;;;;;;1.85;1.20;;;14.10;91.10;;;;;;5038732;28;20030;-66
2024/02/15 04:24:45;;;;;;;2.60;1.30;;;14.10;91.10;;;;;;5041119;28;20025;-66
2024/02/15 04:27:14;;;;;;;4.10;2.15;;;14.10;91.10;;;;;;5032093;28;20028;-66
2024/02/15 04:29:43;;;;;;;2.35;1.73;;;14.10;91.00;;;;;;5039839;28;20047;-66
2024/02/15 04:32:13;;;;;;;1.55;1.30;;;14.10;91.10;;;;;;5030663;28;20033;-66
2024/02/15 04:34:42;;;;;;;1.80;1.38;;;14.10;91.10;;;;;;5035436;28;20103;-66
2024/02/15 04:37:08;;;;;;;2.10;1.92;;;14.10;91.10;;;;;;5039759;28;20034;-67
2024/02/15 04:39:38;;;;;;;2.40;1.60;;;14.10;91.10;;;;;;5031817;28;20037;-66
2024/02/15 04:42:11;;;;;;;5.75;1.10;;;14.10;91.10;;;;;;5032277;28;20500;-66
2024/02/15 04:44:40;;;;;;;2.33;1.70;;;14.10;91.10;;;;;;5031637;28;20029;-66
2024/02/15 04:47:07;;;;;;;4.80;1.92;;;14.10;91.00;;;;;;5022080;28;20036;-66
2024/02/15 04:49:33;;;;;;;3.28;2.30;;;14.10;91.10;;;;;;5029879;28;20076;-67
2024/02/15 04:52:02;;;;;;;4.47;1.38;;;14.10;91.10;;;;;;5030625;28;20056;-67
2024/02/15 04:54:29;;;;;;;3.47;1.40;;;14.00;91.10;;;;;;5028855;28;20061;-66
2024/02/15 04:56:56;;;;;;;3.10;1.50;;;14.00;91.10;;;;;;5032413;28;20030;-66
2024/02/15 04:59:25;;;;;;;4.28;1.30;;;14.10;91.10;;;;;;5023371;28;20424;-67
2024/02/15 05:01:52;;;;;;;3.47;1.55;;;14.10;91.10;;;;;;5043077;28;20078;-66
2024/02/15 05:04:18;;;;;;;2.88;1.02;;;14.10;91.10;;;;;;5037688;28;20500;-67
2024/02/15 05:06:45;;;;;;;3.92;1.48;;;14.10;91.10;;;;;;5035447;28;20039;-66
2024/02/15 05:09:11;;;;;;;1.63;1.38;;;14.10;91.10;;;;;;5033525;28;20037;-67
2024/02/15 05:11:48;;;;;;;3.05;1.40;;;14.10;91.10;;;;;;5040247;28;20570;-66
2024/02/15 05:14:19;;;;;;;3.88;1.52;;;14.20;91.10;;;;;;5027583;28;20044;-67
2024/02/15 05:16:48;;;;;;;2.58;1.40;;;14.10;91.00;;;;;;5031690;28;20033;-67
2024/02/15 05:19:18;;;;;;;8.07;2.22;;;14.10;91.00;;;;;;5029373;28;20040;-66
2024/02/15 05:21:45;;;;;;;5.28;1.90;;;14.10;91.10;;;;;;5031205;28;20098;-67
2024/02/15 05:24:15;;;;;;;2.53;1.65;;;14.10;91.10;;;;;;5029739;28;20033;-66
2024/02/15 05:26:48;;;;;;;2.92;1.23;;;14.10;91.10;;;;;;5027193;28;20041;-66
2024/02/15 05:29:15;;;;;;;3.95;1.85;;;14.10;91.10;;;;;;5027983;28;20041;-66
2024/02/15 05:31:41;;;;;;;4.75;2.28;;;14.10;91.10;;;;;;5030011;28;20036;-66
2024/02/15 05:34:08;;;;;;;5.65;1.83;;;14.10;91.10;;;;;;5031052;28;20507;-66
2024/02/15 05:36:34;;;;;;;2.28;1.55;;;14.10;91.10;;;;;;5032837;28;20036;-66
2024/02/15 05:39:02;;;;;;;2.15;1.35;;;14.10;91.10;;;;;;5028474;28;20071;-66
2024/02/15 05:41:29;;;;;;;3.42;1.42;;;14.10;91.10;;;;;;5030244;28;20496;-66
2024/02/15 05:43:57;;;;;;;2.80;1.58;;;14.10;91.10;;;;;;5029208;28;20029;-66
2024/02/15 05:46:24;;;;;;;2.42;1.25;;;14.10;91.20;;;;;;5030092;28;20022;-66
2024/02/15 05:48:51;;;;;;;3.15;1.60;;;14.10;91.10;;;;;;5032895;28;20171;-66
2024/02/15 05:51:17;;;;;;;1.52;1.13;;;14.10;91.20;;;;;;5028875;28;20025;-66
2024/02/15 05:53:44;;;;;;;3.92;2.28;;;14.10;91.20;;;;;;5028462;28;20029;-66
2024/02/15 05:56:11;;;;;;;5.50;1.50;;;14.10;91.20;;;;;;5029118;28;20046;-66
2024/02/15 05:58:37;;;;;;;6.65;1.30;;;14.10;91.20;;;;;;5029334;28;20112;-66
2024/02/15 06:01:06;;;;;;;3.28;0.82;;;14.10;91.20;;;;;;5027169;28;20037;-67
2024/02/15 06:03:34;;;;;;;3.50;1.50;;;14.10;91.20;;;;;;5031599;28;20028;-66
2024/02/15 06:06:06;;;;;;;1.67;1.45;;;14.10;91.20;;;;;;5028002;28;20033;-66
2024/02/15 06:08:33;;;;;;;2.08;0.93;;;14.10;91.20;;;;;;5029383;28;20480;-66
2024/02/15 06:10:59;;;;;;;1.92;1.20;;;14.10;91.20;;;;;;5028820;28;20025;-66
2024/02/15 06:13:26;;;;;;;2.65;1.20;;;14.10;91.10;;;;;;5030310;28;20038;-66
2024/02/15 06:15:53;;;;;;;1.25;1.08;;;14.10;91.10;;;;;;5028474;28;20088;-66
2024/02/15 06:18:29;;;;;;;1.17;1.08;;;14.20;91.10;;;;;;5029015;28;20112;-66
2024/02/15 06:20:57;;;;;;;2.08;1.40;;;14.10;91.10;;;;;;5027378;28;20107;-66
2024/02/15 06:23:23;;;;;;;1.52;1.15;;;14.10;91.10;;;;;;5029509;28;20330;-66
2024/02/15 06:25:56;;;;;;;4.30;1.25;;;14.10;91.20;;;;;;5028794;28;20436;-67
2024/02/15 06:39:41;;;;;;;4.63;1.30;;;14.10;91.20;;;;;;5028062;28;20413;-67
2024/02/15 06:42:09;;;;;;;2.72;1.63;;;14.00;91.20;;;;;;5025872;28;20131;-67
2024/02/15 06:44:35;;;;;;;2.22;1.20;;;14.00;91.20;;;;;;5027880;28;20025;-67
2024/02/15 06:47:01;;;;;;;2.03;1.15;;;14.00;91.20;;;;;;5030746;28;20499;-67
2024/02/15 06:49:26;;;;;;;3.47;1.02;;;14.00;91.20;;;;;;5030141;28;20025;-67
2024/02/15 06:51:52;;;;;;;2.38;1.52;;;14.10;91.20;;;;;;5032865;28;20036;-66
2024/02/15 06:54:18;;;;;;;1.85;1.40;;;14.10;91.20;;;;;;5028268;28;20026;-67
2024/02/15 06:56:48;;;;;;;1.00;0.90;;;14.00;91.30;;;;;;5029357;28;20108;-67
2024/02/15 06:59:14;;;;;;;1.45;1.20;;;14.00;91.30;;;;;;5027931;28;20108;-67
2024/02/15 07:01:41;;;;;;;2.70;1.38;;;14.00;91.30;;;;;;5025842;28;20030;-66
2024/02/15 07:04:10;;;;;;;3.40;1.45;;;14.10;91.30;;;;;;5031912;28;20529;-67
2024/02/15 07:06:39;;;;;;;2.22;1.42;;;14.00;91.30;;;;;;5033354;28;20120;-67
2024/02/15 07:09:06;;;;;;;1.52;1.30;;;14.00;91.30;;;;;;5034083;28;20192;-67
2024/02/15 07:11:35;;;;;;;1.73;1.42;;;14.10;91.30;;;;;;5032797;28;20444;-67
2024/02/15 07:14:01;;;;;;;1.58;1.17;;;14.10;91.40;;;;;;5033349;28;20048;-67
2024/02/15 07:16:27;;;;;;;1.67;1.35;;;14.10;91.30;;;;;;5036387;28;20029;-66
2024/02/15 07:18:53;;;;;;;4.18;1.63;;;14.10;91.30;;;;;;5032656;28;20036;-67
2024/02/15 07:21:29;;;;;;;1.58;0.80;;;14.10;91.30;;;;;;5032453;28;20392;-67
2024/02/15 07:23:55;;;;;;;1.52;1.13;;;14.10;91.30;;;;;;5032512;28;20022;-67
2024/02/15 07:26:24;;;;;;;2.05;1.23;;;14.10;91.30;;;;;;5032703;28;20017;-67
2024/02/15 07:28:53;;;;;;;1.52;1.20;;;14.10;91.30;;;;;;5032250;28;20031;-67
2024/02/15 07:31:23;;;;;;;1.38;0.90;;;14.10;91.30;;;;;;5033564;28;20057;-67
2024/02/15 07:33:52;;;;;;;4.95;1.00;;;14.20;91.30;;;;;;5030734;28;20124;-67
2024/02/15 07:36:21;;;;;;;2.60;1.95;;;14.20;91.30;;;;;;5033482;28;20080;-67
2024/02/15 07:39:00;;;;;;;2.85;1.00;;;14.20;91.30;;;;;;5032645;28;20099;-66
2024/02/15 07:41:26;;;;;;;2.08;1.88;;;14.20;91.30;;;;;;5031885;28;20069;-66
2024/02/15 07:43:54;;;;;;;1.55;1.23;;;14.20;91.30;;;;;;5031086;28;20072;-66
2024/02/15 07:46:21;;;;;;;2.25;1.40;;;14.20;91.30;;;;;;5028052;28;20120;-66
2024/02/15 07:48:48;;;;;;;4.68;1.80;;;14.20;91.50;;;;;;5028310;28;20037;-67
2024/02/15 07:51:15;;;;;;;6.85;1.95;;;14.20;91.30;;;;;;5009977;28;20397;-67
2024/02/15 07:53:42;;;;;;;1.50;1.00;;;14.20;91.30;;;;;;5022014;28;20022;-66
2024/02/15 07:56:10;;;;;;;3.38;1.40;;;14.20;91.30;;;;;;5025515;28;20090;-68
2024/02/15 07:58:39;;;;;;;3.63;1.40;;;14.20;91.30;;;;;;5024363;28;20388;-66
2024/02/15 08:01:05;;;;;;;2.65;1.52;;;14.20;91.30;;;;;;5028534;28;20053;-66
2024/02/15 08:03:31;;;;;;;1.05;0.88;;;14.20;91.30;;;;;;5022989;28;20060;-66
2024/02/15 08:05:56;;;;;;;2.60;1.33;;;14.20;91.40;;;;;;5017821;28;20033;-66
2024/02/15 08:08:22;;;;;;;2.08;1.30;;;14.20;91.30;;;;;;5028410;28;20034;-66
2024/02/15 08:10:51;;;;;;;1.80;1.38;;;14.20;91.30;;;;;;5019865;28;20038;-67
2024/02/15 08:13:18;;;;;;;4.15;1.50;;;14.20;91.40;;;;;;5027603;28;20029;-66
2024/02/15 08:15:44;;;;;;;3.40;1.20;;;14.20;91.40;;;;;;5031593;28;20025;-68
2024/02/15 08:18:12;;;;;;;1.92;1.13;;;14.20;91.30;;;;;;5035606;28;20025;-66
2024/02/15 08:20:40;;;;;;;2.63;1.73;;;14.20;91.30;;;;;;5034391;28;20064;-66
2024/02/15 08:23:06;;;;;;;2.60;1.15;;;14.30;91.30;;;;;;5027145;28;20539;-66
2024/02/15 08:25:32;;;;;;;1.40;1.15;;;14.30;91.30;;;;;;5025472;28;20022;-66
2024/02/15 08:27:57;;;;;;;0.88;0.80;;;14.30;91.30;;;;;;5031580;28;20148;-66
2024/02/15 08:30:23;;;;;;;2.60;1.50;;;14.30;91.30;;;;;;5032095;28;20029;-65
2024/02/15 08:32:50;;;;;;;1.25;1.15;;;14.30;91.30;;;;;;5022846;28;20660;-65
2024/02/15 08:35:16;;;;;;;3.72;1.45;;;14.30;91.30;;;;;;5024864;28;20497;-70
2024/02/15 08:37:43;;;;;;;1.45;0.90;;;14.30;91.30;;;;;;5030520;28;20052;-67
2024/02/15 08:40:15;;;;;;;0.98;0.95;;;14.30;91.30;;;;;;5043756;28;20057;-65
2024/02/15 08:42:44;;;;;;;1.45;0.98;;;14.40;91.30;;;;;;5029957;28;20504;-67
2024/02/15 08:45:10;;;;;;;2.90;1.15;;;14.40;91.30;;;;;;5033706;28;20104;-67
2024/02/15 08:47:37;;;;;;;1.65;0.82;;;14.40;91.30;;;;;;5020281;28;20034;-66
2024/02/15 08:50:04;;;;;;;0.73;0.70;;;14.40;91.30;;;;;;5030065;28;20021;-66
2024/02/15 08:52:30;;;;;;;1.20;0.90;;;14.40;91.20;;;;;;5030012;28;20051;-64
2024/02/15 08:54:57;;;;;;;1.08;0.80;;;14.40;91.20;;;;;;5030867;28;20101;-64
2024/02/15 08:57:23;;;;;;;2.40;0.82;;;14.40;91.20;;;;;;5034755;28;20025;-65
2024/02/15 08:59:51;;;;;;;1.15;1.05;;;14.40;91.20;;;;;;5017130;28;20037;-64
2024/02/15 09:02:20;;;;;;;4.13;0.95;;;14.50;91.20;;;;;;5025455;28;20033;-64
2024/02/15 09:04:46;;;;;;;0.65;0.65;;;14.50;91.20;;;;;;5023282;28;20040;-64
2024/02/15 09:07:11;;;;;;;0.70;0.70;;;14.50;91.20;;;;;;5020377;28;20395;-64
2024/02/15 09:09:38;;;;;;;0.73;0.57;;;14.50;91.20;;;;;;5029706;28;20041;-64
2024/02/15 09:12:05;;;;;;;0.80;0.80;;;14.50;91.20;;;;;;5028167;28;20128;-64
2024/02/15 09:14:34;;;;;;;1.58;1.13;;;14.50;91.20;;;;;;5012511;28;20072;-64
2024/02/15 09:17:00;;;;;;;0.90;0.73;;;14.50;91.20;;;;;;5016618;28;20120;-64
2024/02/15 09:19:26;;;;;;;1.05;0.90;;;14.50;91.10;;;;;;5019902;28;20026;-66
2024/02/15 09:21:53;;;;;;;2.53;1.23;;;14.50;91.10;;;;;;5025748;28;20048;-66
2024/02/15 09:24:19;;;;;;;1.02;0.93;;;14.60;91.10;;;;;;5016654;28;20584;-66
2024/02/15 09:26:45;;;;;;;1.35;1.25;;;14.50;91.10;;;;;;5023807;28;20112;-66
2024/02/15 09:29:10;;;;;;;2.55;1.08;;;14.50;91.10;;;;;;5034300;28;20033;-66
2024/02/15 09:31:36;;;;;;;2.58;0.75;;;14.50;91.10;;;;;;5027934;28;20033;-66
2024/02/15 09:34:06;;;;;;;1.35;0.93;;;14.50;91.20;;;;;;5028871;28;20049;-66
2024/02/15 09:36:39;;;;;;;0.73;0.63;;;14.50;91.20;;;;;;5005675;28;20044;-66
2024/02/15 09:39:06;;;;;;;0.98;0.85;;;14.50;91.20;;;;;;5020794;28;20042;-66
2024/02/15 09:41:33;;;;;;;1.45;0.90;;;14.50;91.20;;;;;;5024553;28;20469;-66
2024/02/15 09:44:01;;;;;;;0.88;0.80;;;14.50;91.20;;;;;;5022802;28;20044;-66
2024/02/15 09:46:27;;;;;;;1.00;0.77;;;14.50;91.20;;;;;;5029214;28;20397;-63
2024/02/15 09:48:58;;;;;;;1.10;0.82;;;14.50;91.20;;;;;;5024878;28;20025;-64
2024/02/15 09:51:27;;;;;;;1.15;0.80;;;14.50;91.20;;;;;;5030247;28;20504;-64
2024/02/15 09:53:53;;;;;;;4.22;1.08;;;14.50;91.20;;;;;;5027223;28;20030;-64
2024/02/15 09:56:24;;;;;;;1.00;0.85;;;14.50;91.20;;;;;;5028398;28;20040;-64
2024/02/15 09:58:50;;;;;;;1.73;0.98;;;14.50;91.20;;;;;;5020702;28;20033;-67
2024/02/15 10:01:22;;;;;;;1.20;0.57;;;14.40;91.20;;;;;;5023246;28;20116;-66
2024/02/15 10:03:52;;;;;;;0.85;0.70;;;14.50;91.20;;;;;;5025862;28;20789;-66
2024/02/15 10:06:20;;;;;;;3.00;0.73;;;14.40;91.20;;;;;;5028342;28;20021;-66
2024/02/15 10:08:47;;;;;;;0.88;0.85;;;14.40;91.20;;;;;;5026474;28;20033;-66
2024/02/15 10:11:13;;;;;;;1.33;0.70;;;14.40;91.20;;;;;;5027820;28;20492;-66
2024/02/15 10:13:39;;;;;;;2.35;1.15;;;14.40;91.30;;;;;;5026486;28;20484;-66
2024/02/15 10:16:15;;;;;;;0.45;0.45;;;14.40;91.30;;;;;;5027944;28;20030;-66
2024/02/15 10:18:41;;;;;;;3.60;0.70;;;14.50;91.30;;;;;;5023580;28;20107;-66
2024/02/15 10:21:07;;;;;;;1.13;0.80;;;14.50;91.30;;;;;;5024700;28;20025;-66
2024/02/15 10:23:32;;;;;;;2.30;1.10;;;14.50;91.20;;;;;;5032630;28;20057;-66
2024/02/15 10:25:58;;;;;;;1.40;0.85;;;14.50;91.20;;;;;;5026510;28;20053;-66
2024/02/15 10:28:24;;;;;;;2.30;1.15;;;14.50;91.20;;;;;;5024479;28;20040;-65
2024/02/15 10:30:52;;;;;;;1.30;0.82;;;14.50;91.20;;;;;;5028331;28;20025;-63
2024/02/15 10:33:30;;;;;;;1.73;1.05;;;14.50;91.20;;;;;;5026714;28;20038;-64
2024/02/15 10:36:11;;;;;;;2.50;1.33;;;14.50;91.20;;;;;;5029914;28;20051;-64
2024/02/15 10:38:37;;;;;;;2.50;0.85;;;14.60;91.20;;;;;;5024433;28;20061;-65
2024/02/15 10:41:07;;;;;;;1.08;0.98;;;14.50;91.10;;;;;;5024060;28;20024;-64
2024/02/15 10:43:34;;;;;;;2.78;1.65;;;14.50;91.10;;;;;;5018923;28;20396;-64
2024/02/15 10:46:00;;;;;;;3.22;1.58;;;14.60;91.10;;;;;;5015788;28;20388;-64
2024/02/15 10:48:28;;;;;;;1.30;0.93;;;14.60;91.10;;;;;;5013236;28;20485;-64
2024/02/15 10:50:59;;;;;;;0.73;0.68;;;14.60;91.20;;;;;;5021795;28;20037;-64
2024/02/15 10:53:30;;;;;;;2.00;0.95;;;14.60;91.20;;;;;;5017295;28;20037;-65
2024/02/15 10:56:19;;;;;;;1.77;0.88;;;14.60;91.10;;;;;;5024962;28;20481;-64
2024/02/15 10:58:55;;;;;;;2.25;1.45;;;14.60;91.10;;;;;;5023033;28;20426;-64
2024/02/15 11:01:23;;;;;;;1.33;1.02;;;14.60;91.10;;;;;;5024855;28;20373;-66
2024/02/15 11:03:58;;;;;;;1.27;1.00;;;14.60;91.10;;;;;;5028762;28;20377;-67
2024/02/15 11:06:26;;;;;;;1.63;1.30;;;14.60;91.10;;;;;;5022805;28;20080;-67
2024/02/15 11:08:53;;;;;;;1.73;1.10;;;14.70;91.10;;;;;;5057556;28;20049;-65
2024/02/15 11:11:19;;;;;;;2.75;1.75;;;14.70;91.00;;;;;;5027806;28;20369;-64
2024/02/15 11:13:48;;;;;;;2.85;1.13;;;14.80;91.00;;;;;;5024551;28;20052;-64
2024/02/15 11:16:40;;;;;;;1.58;0.77;;;14.70;91.00;;;;;;5030907;28;20045;-65
2024/02/15 11:19:05;;;;;;;1.80;1.35;;;14.70;91.00;;;;;;5020498;28;20393;-65
2024/02/15 11:21:53;;;;;;;2.10;1.10;;;14.70;91.00;;;;;;5025180;28;20021;-64
2024/02/15 11:24:27;;;;;;;1.20;1.00;;;14.80;91.10;;;;;;5017547;28;20030;-64
2024/02/15 11:27:04;;;;;;;1.35;0.95;;;14.80;91.10;;;;;;5025850;28;20480;-64
2024/02/15 11:30:12;;;;;;;1.45;0.95;;;14.80;91.00;;;;;;5023165;28;20083;-64
2024/02/15 11:32:39;;;;;;;2.00;0.80;;;14.80;91.00;;;;;;5024853;28;20038;-64
2024/02/15 11:35:20;;;;;;;1.35;0.82;;;14.80;91.00;;;;;;5053833;28;20049;-67
2024/02/15 11:37:49;;;;;;;1.10;0.90;;;14.90;91.00;;;;;;5021110;28;20038;-67
2024/02/15 11:40:23;;;;;;;2.95;1.17;;;14.90;91.00;;;;;;5024834;28;20556;-67
2024/02/15 11:43:01;;;;;;;2.55;1.40;;;14.90;91.00;;;;;;5017846;28;20037;-67
2024/02/15 11:45:51;;;;;;;5.15;1.55;;;14.90;90.90;;;;;;5017590;28;20551;-67
2024/02/15 11:48:15;;;;;;;1.40;0.88;;;15.00;91.00;;;;;;5019190;28;20034;-67
2024/02/15 11:50:41;;;;;;;2.20;1.20;;;15.00;90.90;;;;;;5017029;28;20042;-67
2024/02/15 11:53:10;;;;;;;2.83;1.08;;;15.00;91.00;;;;;;5010553;28;20045;-67
2024/02/15 11:55:40;;;;;;;1.95;1.27;;;15.10;90.90;;;;;;5025153;28;20060;-67
2024/02/15 12:19:55;;;;;;;1.25;0.90;;;15.60;90.60;;;;;;5019167;28;20084;-65
2024/02/15 12:22:22;;;;;;;1.23;1.02;;;15.70;90.50;;;;;;5019843;28;20443;-65
2024/02/15 12:24:55;;;;;;;1.55;1.02;;;15.80;90.50;;;;;;5026514;28;20113;-67
2024/02/15 12:27:21;;;;;;;2.05;1.25;;;15.90;90.40;;;;;;5012431;28;20039;-67
2024/02/15 12:29:57;;;;;;;3.60;1.48;;;15.90;90.30;;;;;;5019676;28;20671;-67
2024/02/15 12:32:25;;;;;;;1.40;0.70;;;16.00;90.40;;;;;;5027403;28;20037;-67
2024/02/15 12:34:51;;;;;;;2.08;1.20;;;16.00;90.40;;;;;;5026267;28;20077;-66
2024/02/15 12:37:21;;;;;;;1.35;1.10;;;16.00;90.30;;;;;;5020994;28;20076;-65
2024/02/15 12:39:50;;;;;;;1.27;0.93;;;16.00;90.30;;;;;;5054999;28;20037;-65
2024/02/15 12:42:20;;;;;;;1.25;0.93;;;16.00;90.30;;;;;;5025863;28;20030;-65
2024/02/15 12:44:47;;;;;;;3.58;1.45;;;16.00;90.30;;;;;;5000876;28;20033;-65
2024/02/15 12:47:22;;;;;;;1.27;1.17;;;16.00;90.30;;;;;;5020138;28;20037;-65
2024/02/15 12:49:51;;;;;;;2.30;1.13;;;16.00;90.30;;;;;;5035848;28;20041;-65
2024/02/15 12:52:37;;;;;;;1.08;0.80;;;16.10;90.30;;;;;;5029022;28;20029;-65
2024/02/15 12:55:16;;;;;;;2.38;1.27;;;16.20;90.30;;;;;;5037553;28;20049;-66
2024/02/15 12:57:49;;;;;;;2.42;0.80;;;16.20;90.10;;;;;;5023606;28;20029;-67
2024/02/15 13:00:17;;;;;;;1.00;0.80;;;16.20;90.10;;;;;;5023615;28;20439;-67
2024/02/15 13:02:45;;;;;;;1.15;0.80;;;16.30;90.10;;;;;;5018727;28;20071;-66
2024/02/15 13:05:11;;;;;;;1.42;1.08;;;16.40;90.40;;;;;;5020877;28;20041;-67
2024/02/15 13:07:38;;;;;;;3.45;1.45;;;16.60;90.00;;;;;;5028125;28;20365;-67
2024/02/15 13:10:06;;;;;;;2.30;1.08;;;16.70;88.90;;;;;;5015929;28;20050;-67
2024/02/15 13:12:34;;;;;;;1.15;0.82;;;16.70;88.60;;;;;;5020990;28;20522;-67
2024/02/15 13:15:06;;;;;;;1.38;1.00;;;16.70;88.50;;;;;;5023142;28;20473;-66
2024/02/15 13:17:35;;;;;;;2.43;1.30;;;16.60;88.00;;;;;;5026477;28;20026;-66
2024/02/15 13:20:04;;;;;;;7.40;1.02;;;16.60;88.30;;;;;;5017573;28;20041;-66
2024/02/15 13:22:31;;;;;;;1.27;0.85;;;16.60;88.30;;;;;;5012898;28;20025;-66
2024/02/15 13:24:56;;;;;;;1.98;0.98;;;16.60;88.60;;;;;;5018968;28;20401;-67
2024/02/15 13:27:23;;;;;;;1.05;0.90;;;16.60;88.60;;;;;;5051219;28;20110;-65